Jachal, Argentina
Current Conditions -  °F | °C
As of 1:00 AM on Saturday 20 Dec 2014 (Local Time) from SCSE Reporting Station
Broken Clouds Broken Clouds  
Wind Chill: 15°   Ceiling: 2200
Heat Index: 15°   Visibility: 6mi
Dew Point: 11°   Wind: 7mph
Humidity: 77%   Direction: 330°NNW
Pressure: 29.94"   Gusts: NA
Location:  30.25°S, 68.75°W
Report Text: SCSE 200400Z 33006KT 9999 BKN022 15/11 Q1014
Loading
Personal Weather Stations






























Interactive Weather Map New forecast layout! Learn more

10-Day Weather Forecast

Advertisements
Track Severe Weather on mobile